Austin, Minnesota
Current Conditions -  °F | °C
As of 1:16 PM on Sunday 21 Dec 2014 (Local Time) from KAUM Reporting Station
Haze Haze  
Wind Chill: 26°   Ceiling: 500
Heat Index: 36°   Visibility: 1.7mi
Dew Point: 36°   Wind: 15mph
Humidity: 100%   Direction: 180°S
Pressure: 29.8"   Gusts: 23mph
Location:  43.67°N, 92.97°W
Report Text: KAUM 211916Z AUTO 18013G20KT 1 3/4SM BR OVC005 02/02 A2980 RMK AO2
Loading
Personal Weather Stations






























Interactive Weather Map New forecast layout! Learn more

10-Day Weather Forecast

Advertisements
Track Severe Weather on mobile